createdAt,value
2023-08-29T00:00:25.890Z,18.00
2023-08-29T00:02:59.287Z,18.02
2023-08-29T00:05:32.114Z,18.01
2023-08-29T00:08:07.877Z,17.95
2023-08-29T00:10:40.719Z,17.90
2023-08-29T00:13:13.702Z,17.85
2023-08-29T00:15:46.462Z,17.80
2023-08-29T00:18:20.942Z,17.76
2023-08-29T00:20:53.996Z,17.58
2023-08-29T00:23:29.848Z,17.69
2023-08-29T00:26:02.400Z,17.62
2023-08-29T00:28:35.326Z,17.57
2023-08-29T00:31:08.049Z,17.49
2023-08-29T00:33:41.006Z,17.44
2023-08-29T00:36:14.143Z,17.34
2023-08-29T00:38:48.269Z,17.34
2023-08-29T00:41:20.921Z,17.30
2023-08-29T00:43:53.923Z,17.26
2023-08-29T00:46:28.579Z,17.21
2023-08-29T00:49:01.372Z,17.16
2023-08-29T00:51:34.333Z,17.03
2023-08-29T00:54:09.742Z,16.98
2023-08-29T00:56:44.341Z,16.96
2023-08-29T00:59:17.736Z,16.90
2023-08-29T01:01:51.523Z,16.85
2023-08-29T01:04:24.092Z,16.59
2023-08-29T01:06:57.940Z,16.72
2023-08-29T01:09:32.653Z,16.69
2023-08-29T01:12:16.646Z,16.63
2023-08-29T01:14:55.674Z,16.55
2023-08-29T01:17:33.360Z,16.55
2023-08-29T01:20:08.368Z,16.54
2023-08-29T01:23:00.612Z,16.49
2023-08-29T01:25:54.029Z,16.52
2023-08-29T01:28:29.135Z,16.50
2023-08-29T01:31:02.651Z,16.49
2023-08-29T01:33:36.918Z,16.49
2023-08-29T01:36:10.234Z,16.43
2023-08-29T01:38:43.402Z,16.47
2023-08-29T01:41:18.079Z,16.45
2023-08-29T01:43:52.147Z,16.39
2023-08-29T01:46:25.241Z,16.32
2023-08-29T01:49:00.380Z,16.43
2023-08-29T01:51:33.890Z,16.42
2023-08-29T01:54:06.812Z,16.41
2023-08-29T01:56:41.656Z,16.32
2023-08-29T01:59:15.625Z,16.41
2023-08-29T02:01:49.094Z,16.39
2023-08-29T02:04:21.780Z,16.35
2023-08-29T02:06:55.055Z,16.34
2023-08-29T02:09:27.680Z,16.34
2023-08-29T02:12:00.745Z,16.34
2023-08-29T02:14:35.222Z,16.29
2023-08-29T02:17:08.411Z,16.33
2023-08-29T02:19:41.228Z,16.20
2023-08-29T02:22:14.458Z,16.27
2023-08-29T02:24:49.024Z,16.25
2023-08-29T02:27:22.189Z,16.10
2023-08-29T02:29:56.611Z,16.22
2023-08-29T02:32:30.241Z,16.20
2023-08-29T02:35:03.007Z,16.08
2023-08-29T02:37:38.833Z,16.10
2023-08-29T02:40:12.164Z,16.08
2023-08-29T02:42:45.517Z,16.23
2023-08-29T02:45:19.537Z,16.24
2023-08-29T02:47:52.365Z,16.07
2023-08-29T02:50:25.623Z,16.25
2023-08-29T02:52:58.659Z,16.24
2023-08-29T02:55:31.302Z,16.25
2023-08-29T02:58:04.822Z,16.23
2023-08-29T03:00:39.594Z,16.23
2023-08-29T03:03:13.163Z,16.17
2023-08-29T03:05:54.779Z,16.19
2023-08-29T03:08:28.141Z,16.14
2023-08-29T03:11:07.157Z,16.10
2023-08-29T03:13:40.814Z,16.09
2023-08-29T03:16:18.901Z,16.04
2023-08-29T03:18:53.339Z,16.08
2023-08-29T03:21:26.316Z,16.06
2023-08-29T03:23:59.282Z,16.02
2023-08-29T03:26:32.288Z,15.99
2023-08-29T03:29:05.286Z,15.94
2023-08-29T03:31:39.906Z,16.02
2023-08-29T03:34:13.140Z,15.97
2023-08-29T03:36:46.184Z,15.99
2023-08-29T03:39:19.174Z,15.98
2023-08-29T03:41:51.674Z,15.95
2023-08-29T03:44:25.553Z,15.91
2023-08-29T03:46:59.541Z,15.86
2023-08-29T03:49:32.821Z,15.82
2023-08-29T03:52:05.899Z,15.79
2023-08-29T03:54:38.823Z,15.70
2023-08-29T03:57:11.824Z,15.77
2023-08-29T03:59:45.196Z,15.75
2023-08-29T04:02:21.383Z,15.70
2023-08-29T04:04:55.387Z,15.74
2023-08-29T04:07:28.179Z,15.76
2023-08-29T04:10:01.381Z,15.75
2023-08-29T04:12:35.918Z,15.76
2023-08-29T04:15:11.897Z,15.74
2023-08-29T04:17:46.319Z,15.63
2023-08-29T04:20:19.700Z,15.68
2023-08-29T04:22:53.026Z,15.64
2023-08-29T04:25:27.814Z,15.61
2023-08-29T04:28:01.210Z,15.60
2023-08-29T04:30:34.934Z,15.55
2023-08-29T04:33:08.974Z,15.51
2023-08-29T04:35:42.227Z,15.53
2023-08-29T04:38:15.025Z,15.62
2023-08-29T04:40:48.058Z,15.59
2023-08-29T04:43:20.760Z,15.63
2023-08-29T04:45:54.045Z,15.61
2023-08-29T04:48:28.374Z,15.62
2023-08-29T04:51:01.324Z,15.60
2023-08-29T04:53:34.398Z,15.63
2023-08-29T04:56:07.863Z,15.63
2023-08-29T04:58:42.801Z,15.64
2023-08-29T05:01:15.821Z,15.54
2023-08-29T05:03:50.608Z,15.58
2023-08-29T05:06:26.451Z,15.58
2023-08-29T05:08:59.454Z,15.69
2023-08-29T05:11:32.519Z,15.70
2023-08-29T05:14:05.480Z,15.71
2023-08-29T05:16:39.567Z,15.74
2023-08-29T05:19:14.153Z,15.76
2023-08-29T05:21:48.139Z,15.76
2023-08-29T05:24:22.126Z,15.76
2023-08-29T05:26:56.913Z,15.78
2023-08-29T05:29:29.617Z,15.79
2023-08-29T05:32:02.727Z,15.79
2023-08-29T05:34:37.016Z,15.70
2023-08-29T05:37:10.330Z,15.83
2023-08-29T05:39:43.098Z,15.84
2023-08-29T05:42:17.117Z,15.77
2023-08-29T05:44:49.710Z,15.81
2023-08-29T05:47:22.370Z,15.77
2023-08-29T05:49:56.627Z,15.68
2023-08-29T05:52:30.116Z,15.82
2023-08-29T05:55:02.713Z,15.84
2023-08-29T05:57:36.525Z,15.85
2023-08-29T06:00:15.203Z,15.88
2023-08-29T06:02:49.685Z,15.90
2023-08-29T06:05:25.085Z,15.91
2023-08-29T06:08:08.908Z,15.95
2023-08-29T06:10:50.909Z,15.97
2023-08-29T06:13:23.730Z,15.98
2023-08-29T06:15:56.977Z,15.98
2023-08-29T06:18:30.273Z,16.00
2023-08-29T06:21:06.266Z,16.01
2023-08-29T06:23:38.881Z,16.03
2023-08-29T06:26:11.808Z,16.00
2023-08-29T06:28:44.726Z,16.00
2023-08-29T06:31:17.849Z,16.09
2023-08-29T06:33:50.743Z,16.07
2023-08-29T06:36:25.455Z,16.13
2023-08-29T06:38:58.386Z,16.14
2023-08-29T06:41:31.004Z,16.17
2023-08-29T06:44:04.421Z,16.13
2023-08-29T06:46:36.962Z,16.20
2023-08-29T06:49:10.597Z,16.21
2023-08-29T06:51:50.390Z,16.22
2023-08-29T06:54:23.586Z,16.24
2023-08-29T06:56:56.736Z,16.20
2023-08-29T06:59:29.875Z,16.20
2023-08-29T07:02:05.555Z,16.16
2023-08-29T07:04:38.666Z,16.28
2023-08-29T07:07:13.633Z,16.29
2023-08-29T07:09:46.446Z,16.25
2023-08-29T07:12:21.489Z,16.21
2023-08-29T07:14:54.788Z,16.38
2023-08-29T07:17:27.914Z,16.31
2023-08-29T07:20:01.008Z,16.42
2023-08-29T07:22:36.647Z,16.43
2023-08-29T07:25:10.307Z,16.46
2023-08-29T07:27:43.662Z,16.48
2023-08-29T07:30:17.042Z,16.51
2023-08-29T07:32:50.817Z,16.53
2023-08-29T07:35:24.127Z,16.55
2023-08-29T07:37:58.091Z,16.58
2023-08-29T07:40:31.057Z,16.55
2023-08-29T07:43:04.896Z,16.63
2023-08-29T07:45:38.495Z,16.68
2023-08-29T07:48:11.632Z,16.72
2023-08-29T07:50:45.193Z,16.42
2023-08-29T07:53:19.565Z,16.80
2023-08-29T07:55:55.325Z,16.84
2023-08-29T07:58:28.288Z,16.89
2023-08-29T08:01:03.373Z,16.85
2023-08-29T08:03:37.497Z,16.92
2023-08-29T08:06:10.118Z,16.85
2023-08-29T08:08:44.884Z,16.91
2023-08-29T08:11:17.631Z,16.95
2023-08-29T08:13:50.646Z,16.98
2023-08-29T08:16:23.960Z,16.95
2023-08-29T08:18:56.941Z,17.03
2023-08-29T08:21:30.352Z,17.01
2023-08-29T08:24:05.791Z,16.97
2023-08-29T08:26:38.928Z,16.87
2023-08-29T08:29:11.857Z,17.17
2023-08-29T08:31:45.586Z,17.22
2023-08-29T08:34:19.176Z,17.26
2023-08-29T08:36:52.794Z,17.30
2023-08-29T08:39:27.422Z,17.29
2023-08-29T08:42:03.929Z,17.37
2023-08-29T08:44:38.953Z,17.41
2023-08-29T08:47:13.924Z,17.44
2023-08-29T08:49:47.355Z,17.46
2023-08-29T08:52:20.642Z,17.48
2023-08-29T08:54:54.651Z,17.46
2023-08-29T08:57:27.329Z,17.48
2023-08-29T09:00:00.881Z,17.57
2023-08-29T09:02:39.279Z,17.59
2023-08-29T09:05:12.186Z,17.64
2023-08-29T09:07:44.915Z,17.70
2023-08-29T09:10:21.291Z,17.76
2023-08-29T09:12:57.036Z,17.79
2023-08-29T09:15:30.201Z,17.67
2023-08-29T09:18:03.694Z,17.84
2023-08-29T09:20:36.550Z,17.85
2023-08-29T09:23:21.899Z,17.84
2023-08-29T09:25:57.479Z,17.89
2023-08-29T09:28:31.014Z,17.89
2023-08-29T09:31:12.412Z,17.90
2023-08-29T09:33:49.498Z,17.82
2023-08-29T09:36:22.856Z,17.96
2023-08-29T09:38:59.313Z,17.95
2023-08-29T09:41:34.038Z,17.94
2023-08-29T09:44:13.404Z,17.85
2023-08-29T09:46:46.508Z,17.94
2023-08-29T09:49:19.764Z,17.89
2023-08-29T09:51:53.373Z,17.94
2023-08-29T09:54:27.226Z,17.88
2023-08-29T09:57:07.461Z,17.93
2023-08-29T09:59:42.703Z,17.93
2023-08-29T10:02:16.669Z,17.94
2023-08-29T10:04:55.724Z,17.95
2023-08-29T10:07:39.470Z,17.94
2023-08-29T10:10:12.107Z,17.95
2023-08-29T10:12:48.057Z,17.95
2023-08-29T10:15:23.268Z,17.91
2023-08-29T10:17:58.026Z,17.90
2023-08-29T10:20:33.573Z,17.95
2023-08-29T10:23:09.602Z,17.98
2023-08-29T10:25:43.294Z,18.00
2023-08-29T10:28:19.652Z,18.03
2023-08-29T10:30:55.944Z,18.06
2023-08-29T10:33:29.200Z,18.11
2023-08-29T10:36:05.167Z,18.13
2023-08-29T10:38:47.656Z,18.15
2023-08-29T10:41:22.059Z,18.17
2023-08-29T10:44:26.983Z,18.19
2023-08-29T10:47:16.680Z,18.21
2023-08-29T10:49:49.383Z,18.16
2023-08-29T10:52:22.678Z,18.22
2023-08-29T10:55:03.742Z,18.23
2023-08-29T10:57:37.541Z,18.16
2023-08-29T11:00:18.568Z,18.18
2023-08-29T11:02:53.526Z,18.23
2023-08-29T11:05:26.619Z,18.24
2023-08-29T11:08:24.047Z,18.27
2023-08-29T11:11:18.883Z,18.29
2023-08-29T11:13:59.660Z,18.29
2023-08-29T11:16:39.447Z,18.29
2023-08-29T11:19:15.679Z,18.31
2023-08-29T11:21:49.656Z,18.32
2023-08-29T11:24:23.133Z,18.34
2023-08-29T11:26:59.450Z,18.27
2023-08-29T11:29:37.219Z,18.35
2023-08-29T11:32:10.636Z,18.07
2023-08-29T11:34:45.348Z,18.23
2023-08-29T11:37:17.849Z,18.38
2023-08-29T11:39:54.477Z,18.40
2023-08-29T11:42:50.026Z,18.41
2023-08-29T11:45:46.116Z,18.41
2023-08-29T11:48:22.395Z,18.43
2023-08-29T11:50:58.158Z,18.39
2023-08-29T11:53:32.600Z,18.45
2023-08-29T11:56:07.522Z,18.45
2023-08-29T11:58:41.323Z,18.45
2023-08-29T12:01:14.500Z,18.46
2023-08-29T12:03:47.555Z,18.47
2023-08-29T12:06:27.110Z,18.43
2023-08-29T12:09:01.262Z,18.14
2023-08-29T12:11:43.257Z,18.50
2023-08-29T12:14:15.839Z,18.49
2023-08-29T12:16:54.266Z,18.48
2023-08-29T12:19:27.262Z,18.46
2023-08-29T12:22:03.201Z,18.23
2023-08-29T12:24:36.027Z,18.46
2023-08-29T12:27:09.530Z,18.46
2023-08-29T12:29:42.890Z,18.45
2023-08-29T12:32:17.843Z,18.45
2023-08-29T12:34:50.857Z,18.45
2023-08-29T12:37:25.707Z,18.46
2023-08-29T12:39:59.162Z,18.41
2023-08-29T12:42:32.187Z,18.45
2023-08-29T12:45:06.758Z,18.46
2023-08-29T12:47:39.698Z,18.42
2023-08-29T12:50:14.805Z,18.47
2023-08-29T12:52:51.014Z,18.47
2023-08-29T12:55:24.120Z,18.47
2023-08-29T12:57:56.976Z,18.34
2023-08-29T13:00:30.021Z,18.45
2023-08-29T13:03:02.764Z,18.45
2023-08-29T13:05:36.145Z,18.43
2023-08-29T13:08:10.634Z,18.41
2023-08-29T13:10:44.074Z,18.40
2023-08-29T13:13:17.969Z,18.36
2023-08-29T13:15:51.865Z,18.40
2023-08-29T13:18:25.171Z,18.41
2023-08-29T13:20:58.293Z,18.40
2023-08-29T13:23:33.390Z,18.33
2023-08-29T13:26:06.684Z,18.41
2023-08-29T13:28:39.814Z,18.41
2023-08-29T13:31:12.781Z,18.40
2023-08-29T13:33:46.779Z,18.41
2023-08-29T13:36:20.084Z,18.41
2023-08-29T13:38:54.288Z,18.41
2023-08-29T13:41:27.511Z,18.40
2023-08-29T13:44:00.108Z,18.39
2023-08-29T13:46:33.351Z,18.39
2023-08-29T13:49:06.097Z,18.21
2023-08-29T13:51:39.330Z,18.35
2023-08-29T13:54:13.243Z,18.34
2023-08-29T13:56:46.324Z,18.34
2023-08-29T13:59:19.977Z,18.37
2023-08-29T14:01:53.281Z,18.39
2023-08-29T14:04:25.959Z,18.39
2023-08-29T14:06:58.946Z,18.34
2023-08-29T14:09:33.426Z,18.40
2023-08-29T14:12:07.918Z,18.41
2023-08-29T14:14:41.463Z,18.38
2023-08-29T14:17:14.904Z,18.43
2023-08-29T14:19:47.461Z,18.44
2023-08-29T14:22:20.654Z,18.44
2023-08-29T14:24:55.279Z,18.40
2023-08-29T14:27:27.960Z,18.40
2023-08-29T14:30:01.113Z,18.43
2023-08-29T14:32:39.639Z,18.28
2023-08-29T14:35:14.166Z,18.29
2023-08-29T14:37:47.182Z,18.30
2023-08-29T14:40:25.479Z,18.41
2023-08-29T14:42:58.395Z,18.40
2023-08-29T14:45:31.823Z,18.34
2023-08-29T14:48:05.648Z,18.40
2023-08-29T14:50:38.998Z,18.40
2023-08-29T14:53:17.329Z,18.26
2023-08-29T14:55:53.876Z,18.22
2023-08-29T14:58:28.191Z,18.38
2023-08-29T15:01:01.688Z,18.35
2023-08-29T15:03:35.735Z,18.37
2023-08-29T15:06:12.665Z,18.37
2023-08-29T15:08:45.255Z,18.32
2023-08-29T15:11:21.863Z,18.08
2023-08-29T15:13:54.556Z,18.35
2023-08-29T15:16:27.651Z,18.29
2023-08-29T15:19:01.625Z,18.35
2023-08-29T15:21:34.729Z,18.35
2023-08-29T15:24:09.623Z,18.34
2023-08-29T15:26:45.178Z,18.34
2023-08-29T15:29:19.583Z,18.33
2023-08-29T15:31:52.569Z,18.31
2023-08-29T15:34:26.411Z,18.27
2023-08-29T15:36:59.560Z,18.29
2023-08-29T15:39:34.727Z,18.28
2023-08-29T15:42:09.029Z,18.29
2023-08-29T15:44:42.927Z,18.27
2023-08-29T15:47:16.180Z,18.25
2023-08-29T15:49:49.490Z,18.27
2023-08-29T15:52:22.531Z,18.27
2023-08-29T15:54:55.843Z,18.18
2023-08-29T15:57:30.677Z,18.16
2023-08-29T16:00:10.936Z,18.26
2023-08-29T16:02:45.639Z,18.25
2023-08-29T16:05:20.316Z,18.24
2023-08-29T16:07:53.560Z,18.20
2023-08-29T16:10:26.613Z,18.16
2023-08-29T16:13:01.345Z,18.23
2023-08-29T16:15:35.066Z,18.24
2023-08-29T16:18:08.150Z,18.24
2023-08-29T16:20:42.504Z,18.23
2023-08-29T16:23:15.460Z,18.11
2023-08-29T16:25:50.869Z,18.06
2023-08-29T16:28:24.937Z,18.14
2023-08-29T16:31:01.439Z,18.07
2023-08-29T16:33:34.737Z,18.12
2023-08-29T16:36:08.334Z,18.11
2023-08-29T16:38:41.418Z,17.88
2023-08-29T16:41:14.636Z,18.08
2023-08-29T16:43:49.317Z,18.07
2023-08-29T16:46:22.311Z,18.07
2023-08-29T16:48:56.226Z,18.05
2023-08-29T16:51:28.786Z,18.00
2023-08-29T16:54:01.693Z,18.01
2023-08-29T16:56:34.266Z,17.88
2023-08-29T16:59:09.313Z,17.93
2023-08-29T17:01:42.108Z,17.91
2023-08-29T17:04:15.338Z,17.95
2023-08-29T17:06:48.977Z,17.87
2023-08-29T17:09:23.296Z,17.95
2023-08-29T17:11:55.990Z,17.90
2023-08-29T17:14:30.505Z,17.78
2023-08-29T17:17:03.817Z,17.93
2023-08-29T17:19:36.622Z,17.89
2023-08-29T17:22:09.992Z,17.79
2023-08-29T17:24:43.799Z,17.82
2023-08-29T17:27:24.170Z,17.81
2023-08-29T17:29:58.727Z,17.74
2023-08-29T17:32:32.744Z,17.81
2023-08-29T17:35:06.719Z,17.74
2023-08-29T17:37:41.880Z,17.80
2023-08-29T17:40:15.363Z,17.73
2023-08-29T17:42:49.105Z,17.77
2023-08-29T17:45:23.362Z,17.77
2023-08-29T17:47:56.125Z,17.77
2023-08-29T17:50:30.470Z,17.78
2023-08-29T17:53:04.043Z,17.63
2023-08-29T17:55:37.419Z,17.79
2023-08-29T17:58:13.886Z,17.73
2023-08-29T18:00:49.595Z,17.82
2023-08-29T18:03:22.845Z,17.82
2023-08-29T18:06:01.479Z,17.60
2023-08-29T18:08:41.244Z,17.82
2023-08-29T18:11:15.660Z,17.78
2023-08-29T18:13:52.385Z,17.87
2023-08-29T18:16:26.586Z,17.88
2023-08-29T18:19:01.161Z,17.74
2023-08-29T18:21:34.401Z,17.89
2023-08-29T18:24:07.977Z,17.89
2023-08-29T18:26:40.571Z,17.90
2023-08-29T18:29:13.910Z,17.86
2023-08-29T18:31:49.277Z,17.91
2023-08-29T18:34:22.137Z,17.92
2023-08-29T18:36:55.226Z,17.91
2023-08-29T18:39:28.879Z,17.92
2023-08-29T18:42:02.190Z,17.87
2023-08-29T18:44:38.217Z,17.84
2023-08-29T18:47:12.640Z,17.93
2023-08-29T18:49:45.338Z,17.92
2023-08-29T18:52:18.524Z,17.76
2023-08-29T18:54:51.772Z,17.93
2023-08-29T18:57:26.243Z,17.93
2023-08-29T18:59:59.262Z,17.74
2023-08-29T19:02:36.618Z,17.92
2023-08-29T19:05:10.853Z,17.93
2023-08-29T19:07:46.352Z,17.75
2023-08-29T19:10:20.065Z,17.92
2023-08-29T19:12:52.676Z,17.91
2023-08-29T19:15:26.142Z,17.90
2023-08-29T19:18:05.556Z,17.67
2023-08-29T19:20:39.348Z,17.90
2023-08-29T19:23:12.509Z,17.72
2023-08-29T19:25:46.664Z,17.88
2023-08-29T19:28:20.581Z,17.92
2023-08-29T19:30:55.826Z,17.84
2023-08-29T19:33:30.789Z,17.93
2023-08-29T19:36:14.287Z,17.84
2023-08-29T19:38:48.217Z,17.94
2023-08-29T19:41:20.838Z,17.94
2023-08-29T19:43:54.244Z,17.93
2023-08-29T19:46:27.184Z,17.93
2023-08-29T19:49:03.728Z,17.93
2023-08-29T19:51:36.693Z,17.85
2023-08-29T19:54:10.850Z,17.87
2023-08-29T19:56:48.858Z,17.70
2023-08-29T19:59:22.671Z,17.93
2023-08-29T20:01:55.413Z,17.65
2023-08-29T20:04:30.076Z,17.94
2023-08-29T20:07:03.364Z,17.93
2023-08-29T20:09:36.516Z,17.93
2023-08-29T20:12:10.275Z,17.91
2023-08-29T20:14:43.486Z,17.94
2023-08-29T20:17:16.698Z,17.94
2023-08-29T20:19:51.200Z,17.94
2023-08-29T20:22:24.525Z,17.94
2023-08-29T20:24:57.402Z,17.93
2023-08-29T20:27:31.898Z,17.84
2023-08-29T20:30:07.640Z,17.94
2023-08-29T20:32:41.095Z,17.93
2023-08-29T20:35:15.256Z,17.93
2023-08-29T20:37:49.325Z,17.92
2023-08-29T20:40:22.465Z,17.91
2023-08-29T20:42:56.224Z,17.87
2023-08-29T20:45:30.322Z,17.74
2023-08-29T20:48:04.800Z,17.79
2023-08-29T20:50:42.062Z,17.83
2023-08-29T20:53:15.560Z,17.89
2023-08-29T20:55:48.164Z,17.89
2023-08-29T20:58:21.980Z,17.88
2023-08-29T21:00:58.913Z,17.88
2023-08-29T21:03:33.233Z,17.85
2023-08-29T21:06:08.195Z,17.88
2023-08-29T21:08:41.097Z,17.87
2023-08-29T21:11:13.785Z,17.88
2023-08-29T21:13:47.052Z,17.89
2023-08-29T21:16:19.526Z,17.88
2023-08-29T21:18:52.745Z,17.89
2023-08-29T21:21:27.080Z,17.85
2023-08-29T21:24:00.342Z,17.87
2023-08-29T21:26:33.081Z,17.88
2023-08-29T21:29:06.015Z,17.84
2023-08-29T21:32:04.772Z,17.93
2023-08-29T21:34:42.572Z,17.92
2023-08-29T21:37:35.541Z,17.92
2023-08-29T21:40:13.037Z,17.77
2023-08-29T21:42:49.506Z,17.91
2023-08-29T21:45:27.743Z,17.92
2023-08-29T21:48:25.970Z,17.93
2023-08-29T21:51:30.143Z,17.91
2023-08-29T21:54:04.956Z,17.91
2023-08-29T21:56:41.072Z,17.90
2023-08-29T21:59:19.547Z,17.91
2023-08-29T22:02:02.505Z,17.88
2023-08-29T22:04:37.233Z,17.91
2023-08-29T22:07:10.959Z,17.87
2023-08-29T22:09:51.026Z,17.79
2023-08-29T22:12:23.986Z,17.92
2023-08-29T22:14:56.532Z,17.92
2023-08-29T22:17:29.526Z,17.90
2023-08-29T22:20:02.405Z,17.93
2023-08-29T22:22:37.635Z,17.88
2023-08-29T22:25:17.280Z,17.91
2023-08-29T22:27:52.287Z,17.90
2023-08-29T22:30:25.894Z,17.90
2023-08-29T22:32:59.204Z,17.89
2023-08-29T22:35:36.473Z,17.84
2023-08-29T22:38:24.879Z,17.88
2023-08-29T22:41:28.779Z,17.82
2023-08-29T22:44:08.355Z,17.81
2023-08-29T22:46:44.995Z,17.88
2023-08-29T22:49:22.761Z,17.87
2023-08-29T22:52:00.690Z,17.69
2023-08-29T22:54:35.016Z,17.70
2023-08-29T22:57:19.313Z,17.83
2023-08-29T23:00:02.795Z,17.78
2023-08-29T23:02:47.620Z,17.70
2023-08-29T23:05:22.496Z,17.87
2023-08-29T23:07:55.926Z,17.87
2023-08-29T23:10:29.476Z,17.87
2023-08-29T23:13:09.541Z,17.88
2023-08-29T23:15:49.587Z,17.82
2023-08-29T23:18:33.113Z,17.83
2023-08-29T23:21:06.621Z,17.87
2023-08-29T23:23:39.708Z,17.86
2023-08-29T23:26:24.156Z,17.87
2023-08-29T23:28:59.389Z,17.87
2023-08-29T23:31:33.510Z,17.87
2023-08-29T23:34:06.934Z,17.82
2023-08-29T23:36:40.771Z,17.84
2023-08-29T23:39:13.788Z,17.78
2023-08-29T23:41:49.023Z,17.75
2023-08-29T23:44:24.124Z,17.81
2023-08-29T23:46:57.515Z,17.74
2023-08-29T23:49:30.814Z,17.69
2023-08-29T23:52:04.513Z,17.77
2023-08-29T23:54:37.533Z,17.76
2023-08-29T23:57:10.086Z,17.75
2023-08-29T23:59:44.113Z,17.74
